Wright Patterson Air Force Base Dayton US
ICAO: KFFO
IATA: FFO
Category: Large
Scheduled Services: No

Elevation: 823 ft
TransAlt. 18000 ft.

Airport Communications:
DAYTON APP/DEP:118.85
ATIS:124.475
GND:121.8
PMSV METRO:34.46
445AW AFRC COMD POST:34.94
PTD:122.85
PATTERSON TWR:126.9

KFFO Zoom In..

If you have problems with the map follow the link
https://www.worldairports.se/pages/airport.php?
ICAO=KFFO

Runways:

(A) RW 05L length 12600 ft width 300 ft
ILS 109.70 / hdg 53

(B) RW 05R length 7000 ft width 150 ft
---- / hdg 53

(C) RW 23L length 7000 ft width 150 ft
---- / hdg 233

(D) RW 23R length 12600 ft width 300 ft
ILS 109.70 / hdg 233

Location; KFFO
Day. 18 / Time. 02.56 Zulu
* Altimeter: 30.43
* Temperature: 00° c. 32°f.
* Wind from: 110° Speed 09 kn.
Dewpoint: -08° c.
Visibility: 10 Statute Miles.
Clouds: Few 6000 ft.
Clouds: Broken 9500 ft.
Clouds: Overcast 12000 ft.

KFFO 180256Z 11009KT 10SM FEW060 BKN095 OVC120 00/M08 A3043 RMK AO2A SLP318 T10041081 57035


Wind From 110°
Speed 09 kn.

 
 
jpsmedia worldairports.se 2020   terms of use